Time;durP1;ratioP1;P1;durP2;ratioP2;P2;SDS_P1;SDS_P2;PMS_P1;PMS_P2;Temp;Humidity;BMP_temperature;BMP_pressure;BME280_temperature;BME280_humidity;BME280_pressure;Samples;Min_cycle;Max_cycle;Signal;HPM_P1;HPM_P2
2021/08/01 00:00:50;;;;;;;2.50;1.80;;;25.60;67.40;;;;;;5049050;28;20316;-51
2021/08/01 00:03:16;;;;;;;1.80;1.70;;;25.60;67.50;;;;;;5050363;28;20292;-53
2021/08/01 00:05:43;;;;;;;1.60;1.50;;;25.60;67.30;;;;;;5048402;28;20296;-56
2021/08/01 00:08:09;;;;;;;1.75;1.65;;;25.60;67.40;;;;;;5045060;28;20324;-51
2021/08/01 00:10:36;;;;;;;2.00;1.90;;;25.60;67.40;;;;;;5050072;28;20308;-54
2021/08/01 00:13:02;;;;;;;1.95;1.75;;;25.60;67.30;;;;;;5048976;28;20277;-50
2021/08/01 00:15:29;;;;;;;1.80;1.70;;;25.60;67.40;;;;;;5050196;28;20290;-50
2021/08/01 00:17:55;;;;;;;1.98;1.60;;;25.60;67.40;;;;;;5050136;28;20285;-55
2021/08/01 00:20:21;;;;;;;2.20;2.00;;;25.60;68.00;;;;;;5049391;28;20305;-51
2021/08/01 00:22:48;;;;;;;2.03;1.85;;;25.60;67.40;;;;;;5049638;28;20740;-53
2021/08/01 00:25:14;;;;;;;2.63;1.83;;;25.60;67.40;;;;;;5049369;28;20580;-50
2021/08/01 00:27:41;;;;;;;1.90;1.80;;;25.60;67.40;;;;;;5052578;28;20231;-51
2021/08/01 00:30:07;;;;;;;2.00;1.90;;;25.60;67.50;;;;;;5052915;28;20677;-55
2021/08/01 00:32:34;;;;;;;1.83;1.73;;;25.60;67.40;;;;;;5053418;28;20300;-55
2021/08/01 00:35:00;;;;;;;1.60;1.50;;;25.60;67.40;;;;;;5052776;28;20281;-51
2021/08/01 00:37:27;;;;;;;1.70;1.60;;;25.60;67.40;;;;;;5052129;28;20202;-54
2021/08/01 00:39:53;;;;;;;1.95;1.85;;;25.60;67.40;;;;;;5051282;28;20316;-52
2021/08/01 00:42:20;;;;;;;1.60;1.50;;;25.60;67.50;;;;;;5050955;28;20206;-54
2021/08/01 00:44:46;;;;;;;2.17;1.98;;;25.60;67.40;;;;;;5053039;28;20301;-54
2021/08/01 00:47:13;;;;;;;1.60;1.50;;;25.60;67.40;;;;;;5052191;28;20282;-49
2021/08/01 00:49:39;;;;;;;1.90;1.70;;;25.60;67.40;;;;;;5049677;28;20264;-53
2021/08/01 00:52:06;;;;;;;1.90;1.80;;;25.60;67.50;;;;;;5052690;28;20255;-53
2021/08/01 00:54:32;;;;;;;2.00;1.80;;;25.50;67.40;;;;;;5049751;28;20197;-51
2021/08/01 00:56:59;;;;;;;2.00;1.90;;;25.60;67.50;;;;;;5053339;28;20201;-55
2021/08/01 00:59:25;;;;;;;2.17;1.83;;;25.60;67.50;;;;;;5050655;28;20257;-51
2021/08/01 01:01:52;;;;;;;1.67;1.58;;;25.60;67.50;;;;;;5052332;28;20796;-52
2021/08/01 01:04:18;;;;;;;1.80;1.70;;;25.60;67.40;;;;;;5053045;28;20237;-55
2021/08/01 01:06:45;;;;;;;2.40;1.92;;;25.60;67.50;;;;;;5051453;28;20666;-55
2021/08/01 01:09:11;;;;;;;2.47;2.00;;;25.60;67.40;;;;;;5052003;28;20230;-55
2021/08/01 01:11:38;;;;;;;1.70;1.60;;;25.60;67.50;;;;;;5051719;28;20206;-51
2021/08/01 01:14:04;;;;;;;1.90;1.80;;;25.60;67.40;;;;;;5053019;28;20839;-55
2021/08/01 01:16:31;;;;;;;1.52;1.42;;;25.60;67.40;;;;;;5051846;28;20568;-51
2021/08/01 01:18:57;;;;;;;2.35;2.15;;;25.60;67.50;;;;;;5052513;28;20298;-52
2021/08/01 01:21:24;;;;;;;2.00;1.90;;;25.60;67.50;;;;;;5051645;28;20225;-55
2021/08/01 01:23:50;;;;;;;2.50;2.30;;;25.60;67.60;;;;;;5052657;28;20618;-53
2021/08/01 01:26:17;;;;;;;1.42;1.33;;;25.60;67.50;;;;;;5050750;28;20229;-55
2021/08/01 01:28:43;;;;;;;2.17;1.98;;;25.60;67.50;;;;;;5051624;28;20317;-54
2021/08/01 01:31:10;;;;;;;1.77;1.67;;;25.60;67.50;;;;;;5052194;28;20221;-55
2021/08/01 01:33:36;;;;;;;1.77;1.67;;;25.50;67.50;;;;;;5051834;28;20296;-55
2021/08/01 01:36:03;;;;;;;1.90;1.80;;;25.50;67.60;;;;;;5050897;28;20228;-56
2021/08/01 01:38:29;;;;;;;2.08;1.60;;;25.50;67.70;;;;;;5051893;28;20229;-51
2021/08/01 01:40:56;;;;;;;1.80;1.70;;;25.50;67.70;;;;;;5048750;28;20252;-53
2021/08/01 01:43:22;;;;;;;2.05;1.80;;;25.50;67.70;;;;;;5052012;28;20289;-52
2021/08/01 01:45:49;;;;;;;1.63;1.52;;;25.50;67.70;;;;;;5051595;28;20202;-55
2021/08/01 01:48:15;;;;;;;1.90;1.80;;;25.50;67.70;;;;;;5052083;28;20202;-53
2021/08/01 01:50:41;;;;;;;2.33;1.90;;;25.50;67.70;;;;;;5051212;28;20630;-55
2021/08/01 01:53:08;;;;;;;2.67;1.60;;;25.50;67.70;;;;;;5050397;28;20224;-52
2021/08/01 01:55:34;;;;;;;1.70;1.60;;;25.50;67.80;;;;;;5051454;28;20208;-51
2021/08/01 01:58:01;;;;;;;3.55;1.88;;;25.50;67.70;;;;;;5051031;28;20612;-53
2021/08/01 02:00:28;;;;;;;1.98;1.63;;;25.50;67.80;;;;;;5050733;28;20221;-55
2021/08/01 02:02:54;;;;;;;2.35;1.77;;;25.50;67.90;;;;;;5052360;28;20241;-53
2021/08/01 02:05:21;;;;;;;2.22;1.90;;;25.50;67.80;;;;;;5051331;28;20208;-52
2021/08/01 02:07:47;;;;;;;2.10;1.70;;;25.50;67.80;;;;;;5051215;28;20348;-55
2021/08/01 02:10:13;;;;;;;2.90;1.70;;;25.50;67.90;;;;;;5051481;28;20354;-55
2021/08/01 02:12:40;;;;;;;2.05;1.80;;;25.50;67.90;;;;;;5051901;28;20293;-53
2021/08/01 02:15:06;;;;;;;1.67;1.52;;;25.50;68.00;;;;;;5051198;28;20304;-54
2021/08/01 02:17:33;;;;;;;1.50;1.40;;;25.50;68.00;;;;;;5051262;28;20291;-54
2021/08/01 02:19:59;;;;;;;1.90;1.75;;;25.50;68.00;;;;;;5051091;28;20308;-55
2021/08/01 02:22:26;;;;;;;2.00;1.80;;;25.50;68.00;;;;;;5051264;28;20753;-55
2021/08/01 02:24:52;;;;;;;1.67;1.58;;;25.50;68.00;;;;;;5051101;28;20237;-55
2021/08/01 02:27:19;;;;;;;1.55;1.45;;;25.50;68.10;;;;;;5046409;28;20297;-56
2021/08/01 02:29:45;;;;;;;2.08;1.90;;;25.50;68.10;;;;;;5050241;28;20771;-52
2021/08/01 02:32:12;;;;;;;2.38;1.55;;;25.60;68.20;;;;;;5050575;28;20232;-55
2021/08/01 02:34:38;;;;;;;1.60;1.50;;;25.60;68.10;;;;;;5051042;28;20233;-54
2021/08/01 02:37:05;;;;;;;1.80;1.70;;;25.50;68.10;;;;;;5050915;28;20293;-55
2021/08/01 02:39:31;;;;;;;1.88;1.73;;;25.50;68.10;;;;;;5050543;28;20702;-55
2021/08/01 02:41:58;;;;;;;1.80;1.55;;;25.50;68.20;;;;;;5049173;28;20202;-56
2021/08/01 02:44:24;;;;;;;2.03;1.70;;;25.50;68.10;;;;;;5049858;28;20201;-55
2021/08/01 02:46:50;;;;;;;2.08;1.60;;;25.50;68.10;;;;;;5049679;28;20742;-53
2021/08/01 02:49:17;;;;;;;1.60;1.50;;;25.50;68.20;;;;;;5050037;28;20264;-54
2021/08/01 02:51:43;;;;;;;1.85;1.70;;;25.50;68.20;;;;;;5041896;28;20296;-55
2021/08/01 02:54:10;;;;;;;1.85;1.55;;;25.50;68.20;;;;;;5050035;28;20245;-55
2021/08/01 02:56:36;;;;;;;1.92;1.70;;;25.50;68.20;;;;;;5049292;28;20247;-55
2021/08/01 02:59:03;;;;;;;1.88;1.70;;;25.50;68.20;;;;;;5049216;28;20260;-54
2021/08/01 03:01:29;;;;;;;1.90;1.63;;;25.50;68.30;;;;;;5050423;28;20296;-53
2021/08/01 03:03:56;;;;;;;1.60;1.50;;;25.50;68.20;;;;;;5049934;28;20263;-54
2021/08/01 03:06:22;;;;;;;3.15;1.58;;;25.50;68.30;;;;;;5050702;28;20296;-55
2021/08/01 03:08:49;;;;;;;1.50;1.40;;;25.50;68.30;;;;;;5049379;28;20232;-54
2021/08/01 03:11:18;;;;;;;1.63;1.52;;;25.50;68.20;;;;;;5050635;28;20208;-54
2021/08/01 03:13:45;;;;;;;1.80;1.70;;;25.60;68.60;;;;;;5047569;28;20206;-48
2021/08/01 03:16:11;;;;;;;2.40;1.70;;;25.50;68.40;;;;;;5050621;28;20197;-52
2021/08/01 03:18:38;;;;;;;1.80;1.70;;;25.50;68.50;;;;;;5049402;28;20301;-55
2021/08/01 03:21:04;;;;;;;1.80;1.40;;;25.50;68.40;;;;;;5050952;28;20507;-54
2021/08/01 03:23:31;;;;;;;2.45;1.60;;;25.50;68.40;;;;;;5049531;28;20593;-55
2021/08/01 03:25:57;;;;;;;2.10;1.90;;;25.50;68.40;;;;;;5049609;28;20288;-53
2021/08/01 03:28:24;;;;;;;1.55;1.45;;;25.50;68.40;;;;;;5049897;28;20205;-52
2021/08/01 03:30:50;;;;;;;1.60;1.50;;;25.50;68.50;;;;;;5050069;28;20268;-56
2021/08/01 03:33:17;;;;;;;2.33;1.30;;;25.50;68.40;;;;;;5049556;28;20300;-55
2021/08/01 03:35:43;;;;;;;1.90;1.70;;;25.50;68.40;;;;;;5049653;28;20292;-54
2021/08/01 03:38:10;;;;;;;2.00;1.88;;;25.50;68.40;;;;;;5049843;28;20264;-53
2021/08/01 03:40:36;;;;;;;2.47;1.80;;;25.50;68.30;;;;;;5050266;28;20225;-50
2021/08/01 03:43:03;;;;;;;1.70;1.45;;;25.50;68.30;;;;;;5048320;28;20380;-54
2021/08/01 03:45:29;;;;;;;1.40;1.30;;;25.50;68.40;;;;;;5050122;28;20289;-56
2021/08/01 03:47:55;;;;;;;2.25;1.60;;;25.50;68.30;;;;;;5047760;28;20288;-54
2021/08/01 03:50:22;;;;;;;1.60;1.50;;;25.50;68.30;;;;;;5048953;28;20601;-54
2021/08/01 03:52:48;;;;;;;1.58;1.48;;;25.50;68.30;;;;;;5049221;28;20284;-50
2021/08/01 03:55:15;;;;;;;1.92;1.55;;;25.50;68.30;;;;;;5049006;28;20204;-56
2021/08/01 03:57:41;;;;;;;1.52;1.42;;;25.50;68.30;;;;;;5050007;28;20197;-53
2021/08/01 04:00:08;;;;;;;1.55;1.45;;;25.50;68.10;;;;;;5049456;28;20226;-54
2021/08/01 04:02:34;;;;;;;1.73;1.63;;;25.50;68.10;;;;;;5052754;28;20297;-54
2021/08/01 04:05:01;;;;;;;1.95;1.48;;;25.50;68.20;;;;;;5052806;28;20233;-52
2021/08/01 04:07:27;;;;;;;1.88;1.33;;;25.50;68.10;;;;;;5054043;28;20297;-51
2021/08/01 04:09:54;;;;;;;1.85;1.70;;;25.40;68.10;;;;;;5053127;28;20328;-54
2021/08/01 04:12:21;;;;;;;2.00;1.90;;;25.50;68.00;;;;;;5053837;28;20202;-55
2021/08/01 04:14:48;;;;;;;1.70;1.60;;;25.40;67.90;;;;;;5052852;28;20646;-54
2021/08/01 04:17:18;;;;;;;1.73;1.40;;;25.50;68.00;;;;;;5053859;28;20289;-52
2021/08/01 04:19:44;;;;;;;1.50;1.40;;;25.50;68.00;;;;;;5053113;28;20245;-53
2021/08/01 04:22:10;;;;;;;1.90;1.52;;;25.50;68.10;;;;;;5052856;28;20201;-50
2021/08/01 04:24:37;;;;;;;1.60;1.50;;;25.50;68.00;;;;;;5052600;28;20699;-52
2021/08/01 04:27:03;;;;;;;1.67;1.58;;;25.50;68.00;;;;;;5053862;28;20313;-53
2021/08/01 04:29:30;;;;;;;1.50;1.40;;;25.50;68.00;;;;;;5052638;28;20233;-52
2021/08/01 04:31:56;;;;;;;2.47;1.60;;;25.50;68.20;;;;;;5053309;28;20251;-54
2021/08/01 04:34:23;;;;;;;1.75;1.45;;;25.40;68.00;;;;;;5053290;28;20279;-49
2021/08/01 04:36:49;;;;;;;3.75;1.45;;;25.40;67.90;;;;;;5053478;28;20292;-52
2021/08/01 04:39:16;;;;;;;2.05;1.40;;;25.40;67.90;;;;;;5053010;28;20226;-55
2021/08/01 04:41:42;;;;;;;1.90;1.80;;;25.40;67.90;;;;;;5053477;28;20230;-53
2021/08/01 04:44:09;;;;;;;1.40;1.30;;;25.40;67.90;;;;;;5052503;28;20206;-55
2021/08/01 04:46:35;;;;;;;1.42;1.33;;;25.40;67.90;;;;;;5049687;28;20212;-57
2021/08/01 04:49:01;;;;;;;1.70;1.60;;;25.40;67.70;;;;;;5052873;28;20255;-56
2021/08/01 04:51:28;;;;;;;1.40;1.30;;;25.40;67.80;;;;;;5051010;28;20297;-54
2021/08/01 04:53:54;;;;;;;1.42;1.33;;;25.40;67.80;;;;;;5052207;28;20237;-55
2021/08/01 04:56:21;;;;;;;1.85;1.73;;;25.40;67.80;;;;;;5052286;28;20654;-56
2021/08/01 04:58:47;;;;;;;1.60;1.50;;;25.40;67.80;;;;;;5052535;28;20341;-55
2021/08/01 05:01:14;;;;;;;1.52;1.40;;;25.40;67.70;;;;;;5053280;28;20285;-55
2021/08/01 05:03:40;;;;;;;1.60;1.50;;;25.40;67.80;;;;;;5052471;28;20304;-54
2021/08/01 05:06:07;;;;;;;2.33;1.70;;;25.40;67.80;;;;;;5051724;28;20290;-55
2021/08/01 05:08:33;;;;;;;1.63;1.52;;;25.40;67.90;;;;;;5052994;28;20213;-54
2021/08/01 05:11:00;;;;;;;1.60;1.50;;;25.40;67.90;;;;;;5051942;28;20804;-55
2021/08/01 05:13:26;;;;;;;1.70;1.60;;;25.40;68.00;;;;;;5052411;28;20308;-54
2021/08/01 05:15:52;;;;;;;1.70;1.60;;;25.40;67.90;;;;;;5051552;28;20392;-51
2021/08/01 05:18:20;;;;;;;1.42;1.33;;;25.40;68.00;;;;;;5052201;28;20296;-54
2021/08/01 05:20:46;;;;;;;1.70;1.50;;;25.40;68.00;;;;;;5051855;28;20202;-56
2021/08/01 05:23:13;;;;;;;1.60;1.50;;;25.40;68.00;;;;;;5052297;28;20225;-54
2021/08/01 05:25:39;;;;;;;1.60;1.50;;;25.40;67.90;;;;;;5052335;28;20641;-54
2021/08/01 05:28:06;;;;;;;1.50;1.40;;;25.40;68.10;;;;;;5052911;28;20289;-50
2021/08/01 05:30:32;;;;;;;1.40;1.30;;;25.40;68.10;;;;;;5052298;28;20324;-54
2021/08/01 05:32:59;;;;;;;1.35;1.20;;;25.40;68.00;;;;;;5052218;28;20301;-53
2021/08/01 05:35:25;;;;;;;1.40;1.30;;;25.40;68.00;;;;;;5052036;28;20301;-53
2021/08/01 05:37:52;;;;;;;1.80;1.40;;;25.40;67.90;;;;;;5051961;28;20638;-50
2021/08/01 05:40:18;;;;;;;1.38;1.27;;;25.40;67.90;;;;;;5051877;28;20325;-50
2021/08/01 05:42:45;;;;;;;1.50;1.40;;;25.40;67.90;;;;;;5052561;28;20198;-54
2021/08/01 05:45:11;;;;;;;1.80;1.40;;;25.40;67.90;;;;;;5051434;28;20237;-54
2021/08/01 05:47:38;;;;;;;1.60;1.50;;;25.40;67.90;;;;;;5051964;28;20374;-52
2021/08/01 05:50:04;;;;;;;1.77;1.38;;;25.40;68.00;;;;;;5050662;28;20237;-51
2021/08/01 05:52:30;;;;;;;1.63;1.52;;;25.40;67.90;;;;;;5051226;28;20198;-55
2021/08/01 05:54:57;;;;;;;2.20;1.55;;;25.40;68.00;;;;;;5047918;28;20296;-52
2021/08/01 05:57:24;;;;;;;1.42;1.33;;;25.40;67.90;;;;;;5049968;28;20200;-52
2021/08/01 05:59:50;;;;;;;1.50;1.40;;;25.40;67.90;;;;;;5051184;28;20781;-53
2021/08/01 06:02:17;;;;;;;1.60;1.50;;;25.40;67.90;;;;;;5051815;28;20285;-53
2021/08/01 06:04:43;;;;;;;1.48;1.38;;;25.40;68.00;;;;;;5052352;28;20288;-54
2021/08/01 06:07:10;;;;;;;1.70;1.20;;;25.40;68.00;;;;;;5050013;28;20193;-57
2021/08/01 06:09:36;;;;;;;1.70;1.60;;;25.40;67.90;;;;;;5052272;28;20317;-53
2021/08/01 06:12:02;;;;;;;1.40;1.30;;;25.40;68.00;;;;;;5050719;28;20202;-52
2021/08/01 06:14:29;;;;;;;1.40;1.30;;;25.40;68.10;;;;;;5052045;28;20292;-53
2021/08/01 06:16:55;;;;;;;1.58;1.30;;;25.40;68.10;;;;;;5050966;28;20631;-50
2021/08/01 06:19:22;;;;;;;1.85;1.50;;;25.40;68.10;;;;;;5046963;28;20317;-56
2021/08/01 06:21:48;;;;;;;2.22;1.52;;;25.40;68.10;;;;;;5048132;28;20308;-54
2021/08/01 06:24:15;;;;;;;1.48;1.17;;;25.40;68.00;;;;;;5050674;28;20292;-56
2021/08/01 06:26:42;;;;;;;1.60;1.50;;;25.40;68.00;;;;;;5043235;28;20198;-53
2021/08/01 06:29:09;;;;;;;1.52;1.40;;;25.40;68.00;;;;;;5050419;28;20316;-53
2021/08/01 06:31:35;;;;;;;1.80;1.30;;;25.40;68.00;;;;;;5051561;28;20663;-55
2021/08/01 06:34:02;;;;;;;1.27;1.17;;;25.40;68.10;;;;;;5050911;28;20241;-53
2021/08/01 06:36:28;;;;;;;1.92;1.30;;;25.40;68.10;;;;;;5050670;28;20206;-53
2021/08/01 06:38:55;;;;;;;1.52;1.42;;;25.40;68.10;;;;;;5050524;28;20221;-55
2021/08/01 06:41:21;;;;;;;1.20;1.20;;;25.40;68.10;;;;;;5051249;28;20615;-55
2021/08/01 06:43:47;;;;;;;1.30;1.20;;;25.40;68.10;;;;;;5049255;28;20206;-53
2021/08/01 06:46:14;;;;;;;1.30;1.20;;;25.40;68.00;;;;;;5049875;28;20294;-56
2021/08/01 06:48:40;;;;;;;1.40;1.30;;;25.40;68.10;;;;;;5050459;28;20314;-56
2021/08/01 06:51:07;;;;;;;2.67;1.40;;;25.40;68.10;;;;;;5049713;28;20328;-55
2021/08/01 06:53:33;;;;;;;1.42;1.33;;;25.40;68.10;;;;;;5043220;28;20271;-54
2021/08/01 06:56:00;;;;;;;1.73;1.60;;;25.40;68.10;;;;;;5050556;28;20284;-54
2021/08/01 06:58:27;;;;;;;1.60;1.50;;;25.40;68.10;;;;;;5049214;28;20249;-55
2021/08/01 07:00:53;;;;;;;2.42;1.50;;;25.40;68.00;;;;;;5050126;28;20230;-55
2021/08/01 07:03:20;;;;;;;1.60;1.33;;;25.50;68.00;;;;;;5050133;28;20293;-53
2021/08/01 07:05:46;;;;;;;1.67;1.42;;;25.50;68.70;;;;;;5050549;28;20883;-54
2021/08/01 07:08:12;;;;;;;1.55;1.40;;;25.40;69.00;;;;;;5049846;28;20308;-56
2021/08/01 07:10:39;;;;;;;1.50;1.40;;;25.50;69.00;;;;;;5049525;28;20237;-58
2021/08/01 07:13:05;;;;;;;1.60;1.40;;;25.50;69.00;;;;;;5049558;28;20737;-53
2021/08/01 07:15:32;;;;;;;1.40;1.30;;;25.40;68.90;;;;;;5049357;28;20201;-54
2021/08/01 07:17:58;;;;;;;1.85;1.42;;;25.50;68.90;;;;;;5047606;28;20210;-60
2021/08/01 07:20:25;;;;;;;2.70;1.65;;;25.40;68.20;;;;;;5048698;28;20212;-62
2021/08/01 07:22:51;;;;;;;2.80;1.33;;;25.40;68.00;;;;;;5053711;28;20296;-52
2021/08/01 07:25:18;;;;;;;3.28;1.58;;;25.40;68.40;;;;;;5054876;28;20717;-63
2021/08/01 07:27:44;;;;;;;5.63;1.33;;;25.50;68.60;;;;;;5050529;28;20366;-60
2021/08/01 07:30:11;;;;;;;2.08;1.20;;;25.50;68.70;;;;;;5049635;28;20230;-59
2021/08/01 07:32:37;;;;;;;1.52;1.33;;;25.50;68.40;;;;;;5049949;28;20293;-58
2021/08/01 07:35:04;;;;;;;4.22;1.90;;;25.50;68.60;;;;;;5049508;28;20285;-61
2021/08/01 07:37:30;;;;;;;6.75;2.05;;;25.40;68.10;;;;;;5048458;28;20773;-58
2021/08/01 07:39:57;;;;;;;7.28;2.25;;;25.40;68.40;;;;;;5049158;28;20312;-56
2021/08/01 07:42:23;;;;;;;7.78;2.45;;;25.50;69.80;;;;;;5049010;28;20315;-57
2021/08/01 07:44:52;;;;;;;5.20;1.83;;;25.50;69.80;;;;;;5050062;28;20297;-51
2021/08/01 07:47:18;;;;;;;5.95;2.03;;;25.40;69.30;;;;;;5049231;28;20201;-58
2021/08/01 07:49:45;;;;;;;5.40;1.90;;;25.30;68.50;;;;;;5049312;28;20305;-50
2021/08/01 07:52:11;;;;;;;3.55;2.20;;;25.20;67.40;;;;;;5051325;28;20645;-56
2021/08/01 07:54:38;;;;;;;3.17;2.03;;;25.10;66.80;;;;;;5050293;28;20284;-57
2021/08/01 07:57:04;;;;;;;2.22;1.95;;;25.10;66.60;;;;;;5030187;28;20232;-60
2021/08/01 07:59:31;;;;;;;6.22;2.38;;;24.90;62.50;;;;;;5047752;28;20678;-62
2021/08/01 08:01:58;;;;;;;2.55;1.73;;;23.00;66.70;;;;;;5047116;28;20292;-62
2021/08/01 08:04:24;;;;;;;2.13;1.70;;;21.50;68.80;;;;;;5048425;28;20241;-62
2021/08/01 08:06:51;;;;;;;2.08;1.80;;;21.40;72.70;;;;;;5045423;28;20662;-62
2021/08/01 08:09:18;;;;;;;1.90;1.63;;;21.40;71.90;;;;;;5047611;28;20482;-62
2021/08/01 08:11:45;;;;;;;3.45;1.90;;;21.20;65.90;;;;;;5046172;28;20281;-62
2021/08/01 08:14:11;;;;;;;1.80;1.70;;;21.00;65.30;;;;;;5051721;28;20286;-62
2021/08/01 08:16:38;;;;;;;2.20;2.00;;;20.70;65.90;;;;;;5052978;28;20301;-61
2021/08/01 08:19:04;;;;;;;2.33;1.75;;;21.30;64.60;;;;;;5050629;28;20642;-61
2021/08/01 08:21:30;;;;;;;1.98;1.67;;;21.80;62.40;;;;;;5048810;28;20197;-62
2021/08/01 08:23:57;;;;;;;1.80;1.65;;;21.60;62.20;;;;;;5053676;28;20246;-61
2021/08/01 08:26:23;;;;;;;3.60;2.05;;;22.10;61.60;;;;;;5056939;28;20289;-63
2021/08/01 08:28:50;;;;;;;2.22;2.03;;;22.40;60.60;;;;;;5059299;28;20673;-63
2021/08/01 08:31:16;;;;;;;2.92;2.67;;;22.30;60.60;;;;;;5058426;28;20230;-62
2021/08/01 08:33:43;;;;;;;2.30;2.10;;;21.30;62.40;;;;;;5049812;28;20241;-62
2021/08/01 08:36:10;;;;;;;2.20;1.92;;;20.80;63.60;;;;;;5053913;28;20213;-62
2021/08/01 08:38:36;;;;;;;2.97;1.83;;;20.50;64.10;;;;;;5039025;28;20392;-60
2021/08/01 08:41:03;;;;;;;2.55;1.85;;;20.30;71.60;;;;;;5041683;28;20301;-67
2021/08/01 08:43:29;;;;;;;2.15;1.65;;;21.30;68.60;;;;;;5044378;28;20238;-69
2021/08/01 08:45:56;;;;;;;1.80;1.70;;;21.80;67.70;;;;;;5047507;28;20296;-72
2021/08/01 08:48:22;;;;;;;1.52;1.40;;;22.20;67.40;;;;;;5050816;28;20309;-63
2021/08/01 08:50:48;;;;;;;2.03;1.75;;;22.40;66.60;;;;;;5051340;28;20226;-65
2021/08/01 08:53:15;;;;;;;2.10;1.90;;;22.60;66.20;;;;;;5052493;28;20212;-73
2021/08/01 08:55:41;;;;;;;2.28;1.85;;;22.80;65.70;;;;;;5050139;28;20285;-61
2021/08/01 08:58:08;;;;;;;2.55;1.95;;;23.00;65.40;;;;;;5051742;28;20229;-60
2021/08/01 09:00:35;;;;;;;2.15;1.95;;;22.90;65.10;;;;;;5052030;28;20289;-59
2021/08/01 09:03:01;;;;;;;1.95;1.60;;;22.80;65.30;;;;;;5048113;28;20373;-58
2021/08/01 09:05:28;;;;;;;3.92;2.10;;;22.90;65.40;;;;;;5044868;28;20198;-60
2021/08/01 09:07:54;;;;;;;2.63;1.80;;;22.90;65.30;;;;;;5037908;28;20257;-60
2021/08/01 09:10:21;;;;;;;1.98;1.70;;;22.60;65.10;;;;;;5044493;28;20317;-60
2021/08/01 09:12:47;;;;;;;2.15;1.80;;;22.60;65.10;;;;;;5052235;28;20237;-60
2021/08/01 09:15:14;;;;;;;2.10;1.75;;;22.50;64.90;;;;;;5052087;28;20256;-60
2021/08/01 09:17:40;;;;;;;2.40;2.17;;;22.50;65.20;;;;;;5051436;28;20305;-59
2021/08/01 09:20:06;;;;;;;3.10;1.85;;;22.40;64.70;;;;;;5044132;28;20210;-62
2021/08/01 09:22:33;;;;;;;2.20;1.70;;;22.60;64.30;;;;;;5051703;28;20631;-65
2021/08/01 09:24:59;;;;;;;2.33;1.85;;;22.40;64.30;;;;;;5051355;28;20209;-61
2021/08/01 09:27:26;;;;;;;2.30;1.67;;;22.50;64.20;;;;;;5048182;28;20240;-59
2021/08/01 09:29:52;;;;;;;2.42;1.77;;;22.70;64.30;;;;;;5050147;28;20212;-59
2021/08/01 09:32:19;;;;;;;3.22;1.75;;;22.70;64.20;;;;;;5054751;28;20575;-60
2021/08/01 09:34:45;;;;;;;1.73;1.63;;;22.50;64.60;;;;;;5050747;28;20292;-59
2021/08/01 09:37:12;;;;;;;3.28;1.73;;;22.50;64.50;;;;;;5052108;28;20216;-59
2021/08/01 09:39:38;;;;;;;3.30;1.77;;;22.40;64.10;;;;;;5071206;28;20277;-59
2021/08/01 09:42:05;;;;;;;1.60;1.45;;;22.70;64.40;;;;;;5072617;28;20197;-59
2021/08/01 09:44:31;;;;;;;2.60;1.90;;;22.80;64.10;;;;;;5072544;28;20654;-59
2021/08/01 09:46:58;;;;;;;2.50;1.85;;;22.80;64.30;;;;;;5071930;28;20289;-59
2021/08/01 09:49:25;;;;;;;1.90;1.70;;;22.80;64.60;;;;;;5055158;28;20217;-60
2021/08/01 09:51:52;;;;;;;2.33;1.90;;;22.70;64.20;;;;;;5052367;28;20269;-59
2021/08/01 09:54:18;;;;;;;2.08;1.80;;;22.50;64.50;;;;;;5052580;28;20689;-59
2021/08/01 09:56:44;;;;;;;3.63;1.90;;;22.60;64.60;;;;;;5052089;28;20209;-59
2021/08/01 09:59:11;;;;;;;2.15;1.60;;;22.80;63.90;;;;;;5051420;28;20360;-55
2021/08/01 10:01:37;;;;;;;1.92;1.70;;;22.60;63.60;;;;;;5044104;28;20265;-63
2021/08/01 10:04:04;;;;;;;2.00;1.80;;;22.50;63.90;;;;;;5037694;28;20194;-60
2021/08/01 10:06:30;;;;;;;1.98;1.77;;;22.50;63.80;;;;;;5050506;28;20289;-62
2021/08/01 10:08:57;;;;;;;1.75;1.58;;;22.20;63.30;;;;;;5049274;28;20407;-61
2021/08/01 10:11:23;;;;;;;1.98;1.88;;;22.20;64.30;;;;;;5050790;28;20316;-61
2021/08/01 10:13:50;;;;;;;1.80;1.70;;;22.40;64.00;;;;;;5050657;28;20694;-61
2021/08/01 10:16:16;;;;;;;2.08;1.73;;;22.40;63.90;;;;;;5047707;28;20312;-60
2021/08/01 10:18:43;;;;;;;3.55;2.08;;;22.30;63.80;;;;;;5051075;28;20218;-60
2021/08/01 10:21:09;;;;;;;1.80;1.70;;;22.10;64.20;;;;;;5045888;28;20423;-60
2021/08/01 10:23:36;;;;;;;1.88;1.77;;;22.10;64.50;;;;;;5049939;28;20202;-59
2021/08/01 10:26:03;;;;;;;2.05;1.88;;;22.20;64.50;;;;;;5050980;28;20202;-60
2021/08/01 10:28:30;;;;;;;2.10;1.90;;;22.00;64.40;;;;;;5050863;28;20424;-59
2021/08/01 10:30:56;;;;;;;1.85;1.65;;;22.00;64.90;;;;;;5047584;28;20282;-60
2021/08/01 10:33:23;;;;;;;3.00;1.80;;;22.20;64.90;;;;;;5042634;28;20309;-61
2021/08/01 10:35:50;;;;;;;2.33;1.92;;;22.30;64.90;;;;;;5048795;28;20213;-58
2021/08/01 10:38:16;;;;;;;2.22;1.80;;;22.30;65.00;;;;;;5038231;28;20257;-59
2021/08/01 10:40:43;;;;;;;1.95;1.70;;;22.60;64.70;;;;;;5046863;28;20391;-58
2021/08/01 10:43:09;;;;;;;2.03;1.55;;;22.70;64.40;;;;;;5038382;28;20212;-58
2021/08/01 10:45:36;;;;;;;2.20;1.98;;;22.80;64.40;;;;;;5047764;28;20674;-58
2021/08/01 10:48:03;;;;;;;1.80;1.70;;;22.80;64.50;;;;;;5049808;28;20324;-58
2021/08/01 10:50:30;;;;;;;1.90;1.63;;;23.00;64.40;;;;;;5048781;28;20218;-58
2021/08/01 10:52:56;;;;;;;1.83;1.70;;;23.00;64.40;;;;;;5040000;28;20638;-59
2021/08/01 10:55:23;;;;;;;1.90;1.67;;;22.90;63.80;;;;;;5040415;28;20289;-58
2021/08/01 10:57:49;;;;;;;3.17;1.90;;;22.70;63.60;;;;;;5048311;28;20308;-58
2021/08/01 11:00:16;;;;;;;2.33;2.13;;;22.50;63.50;;;;;;5052892;28;20233;-58
2021/08/01 11:02:42;;;;;;;2.90;2.58;;;22.40;63.60;;;;;;5055425;28;20220;-58
2021/08/01 11:05:08;;;;;;;3.75;2.80;;;22.50;63.60;;;;;;5045807;28;20612;-58
2021/08/01 11:07:35;;;;;;;2.47;2.22;;;22.40;63.80;;;;;;5048880;28;20261;-58
2021/08/01 11:10:01;;;;;;;5.10;2.40;;;22.20;64.30;;;;;;5048331;28;20212;-58
2021/08/01 11:12:28;;;;;;;2.28;2.08;;;22.30;64.50;;;;;;5044683;28;20309;-59
2021/08/01 11:14:55;;;;;;;3.22;2.13;;;22.50;65.00;;;;;;5047769;28;20198;-59
2021/08/01 11:17:22;;;;;;;2.20;2.00;;;22.50;64.90;;;;;;5046428;28;20308;-60
2021/08/01 11:19:49;;;;;;;2.30;1.95;;;22.60;65.00;;;;;;5050277;28;20212;-57
2021/08/01 11:22:16;;;;;;;2.28;1.73;;;22.60;65.00;;;;;;5049758;28;20206;-58
2021/08/01 11:24:42;;;;;;;2.20;1.92;;;22.60;65.10;;;;;;5049114;28;20284;-61
2021/08/01 11:27:09;;;;;;;2.17;1.90;;;22.30;63.30;;;;;;5045291;28;20230;-62
2021/08/01 11:29:35;;;;;;;1.80;1.70;;;22.10;62.60;;;;;;5045160;28;20206;-62
2021/08/01 11:32:02;;;;;;;2.20;2.00;;;22.10;63.50;;;;;;5045491;28;20719;-62
2021/08/01 11:34:28;;;;;;;1.92;1.73;;;21.80;64.20;;;;;;5056374;28;20300;-62
2021/08/01 11:36:55;;;;;;;1.98;1.80;;;21.90;64.30;;;;;;5059127;28;20307;-62
2021/08/01 11:39:23;;;;;;;2.00;1.80;;;22.20;64.00;;;;;;5056908;28;20202;-65
2021/08/01 11:41:50;;;;;;;2.33;1.75;;;22.00;63.90;;;;;;5049057;28;20210;-62
2021/08/01 11:44:16;;;;;;;2.20;2.00;;;22.10;63.80;;;;;;5051156;28;20605;-62
2021/08/01 11:46:43;;;;;;;1.48;1.38;;;22.40;63.70;;;;;;5045687;28;20313;-62
2021/08/01 11:49:09;;;;;;;2.00;1.75;;;22.40;63.80;;;;;;5047155;28;20238;-63
2021/08/01 11:51:35;;;;;;;1.98;1.75;;;22.50;63.70;;;;;;5046050;28;20230;-61
2021/08/01 11:54:02;;;;;;;1.92;1.70;;;22.70;63.70;;;;;;5041563;28;20233;-60
2021/08/01 11:56:28;;;;;;;2.28;2.08;;;22.70;63.60;;;;;;5042727;28;20244;-62
2021/08/01 11:58:55;;;;;;;1.95;1.65;;;22.60;63.40;;;;;;5046186;28;20260;-62
2021/08/01 12:01:21;;;;;;;2.42;1.83;;;22.50;63.80;;;;;;5039333;28;20305;-62
2021/08/01 12:03:48;;;;;;;2.03;1.75;;;22.60;63.80;;;;;;5043505;28;20499;-62
2021/08/01 12:06:14;;;;;;;1.98;1.77;;;22.70;63.80;;;;;;5042926;28;20201;-62
2021/08/01 12:08:41;;;;;;;1.80;1.70;;;22.50;64.10;;;;;;5043227;28;20713;-62
2021/08/01 12:11:07;;;;;;;2.70;1.92;;;22.50;64.10;;;;;;5048783;28;20225;-62
2021/08/01 12:13:34;;;;;;;2.00;1.77;;;22.50;64.50;;;;;;5040598;28;20599;-62
2021/08/01 12:16:00;;;;;;;2.33;1.83;;;22.40;64.60;;;;;;5041073;28;20210;-62
2021/08/01 12:18:27;;;;;;;2.28;1.88;;;22.40;64.20;;;;;;5044671;28;20302;-63
2021/08/01 12:20:53;;;;;;;1.70;1.60;;;22.50;64.10;;;;;;5041157;28;20677;-62
2021/08/01 12:23:20;;;;;;;2.40;1.90;;;22.60;64.10;;;;;;5044720;28;22590;-62
2021/08/01 12:25:46;;;;;;;2.08;1.77;;;22.70;63.80;;;;;;5041600;28;20284;-63
2021/08/01 12:28:13;;;;;;;1.80;1.70;;;22.70;63.50;;;;;;5047019;28;20312;-62
2021/08/01 12:30:39;;;;;;;1.90;1.70;;;22.70;63.10;;;;;;5048440;28;20289;-62
2021/08/01 12:33:06;;;;;;;2.13;1.80;;;22.70;62.80;;;;;;5046688;28;21889;-62
2021/08/01 12:35:32;;;;;;;2.17;1.77;;;22.70;62.90;;;;;;5048223;28;20197;-63
2021/08/01 12:38:00;;;;;;;4.15;2.05;;;22.70;62.90;;;;;;5042600;28;20892;-65
2021/08/01 12:40:27;;;;;;;2.15;1.65;;;22.50;63.60;;;;;;5047521;28;20216;-62
2021/08/01 12:42:53;;;;;;;2.05;1.85;;;22.40;63.80;;;;;;5058091;28;20201;-62